createdAt,value
2023-02-23T04:37:08.145Z,9.30
2023-02-23T04:47:44.650Z,9.40
2023-02-23T04:58:20.650Z,9.50
2023-02-23T05:08:56.143Z,9.40
2023-02-23T05:19:31.852Z,9.40
2023-02-23T05:30:09.803Z,9.40
2023-02-23T05:40:45.609Z,9.30
2023-02-23T05:51:21.852Z,9.30
2023-02-23T06:01:57.231Z,9.30
2023-02-23T06:12:33.043Z,9.20
2023-02-23T06:23:08.935Z,9.10
2023-02-23T06:33:44.694Z,9.20
2023-02-23T06:44:22.091Z,9.20
2023-02-23T06:54:57.899Z,9.20
2023-02-23T07:05:33.717Z,9.40
2023-02-23T07:16:09.736Z,9.50
2023-02-23T07:26:47.053Z,9.60
2023-02-23T07:37:22.425Z,9.60
2023-02-23T07:47:59.269Z,9.70
2023-02-23T07:58:35.185Z,9.80
2023-02-23T08:09:11.741Z,10.00
2023-02-23T08:19:47.336Z,10.20
2023-02-23T08:30:24.133Z,10.50
2023-02-23T08:41:01.627Z,10.60
2023-02-23T08:51:37.054Z,10.40
2023-02-23T09:02:13.895Z,10.40
2023-02-23T09:12:49.691Z,10.40
2023-02-23T09:23:29.369Z,10.60
2023-02-23T09:34:05.245Z,10.90
2023-02-23T09:45:01.119Z,11.10
2023-02-23T09:55:39.627Z,11.30
2023-02-23T10:06:17.864Z,12.50
2023-02-23T10:17:20.330Z,12.00
2023-02-23T10:27:58.316Z,11.90
2023-02-23T10:38:33.942Z,11.80
2023-02-23T10:49:22.428Z,12.30
2023-02-23T11:00:27.657Z,12.60
2023-02-23T11:11:15.848Z,12.80
2023-02-23T11:21:52.624Z,13.20
2023-02-23T11:32:31.994Z,13.30
2023-02-23T11:43:13.565Z,13.70
2023-02-23T11:53:49.282Z,13.70
2023-02-23T12:04:38.507Z,13.80
2023-02-23T12:15:24.754Z,14.30
2023-02-23T12:26:20.540Z,14.40
2023-02-23T12:37:07.376Z,14.70
2023-02-23T12:48:07.494Z,14.50
2023-02-23T12:58:50.490Z,13.80
2023-02-23T13:09:53.802Z,13.90
2023-02-23T13:20:49.992Z,14.30
2023-02-23T13:31:39.401Z,14.30
2023-02-23T13:42:20.860Z,14.00
2023-02-23T13:53:04.626Z,13.80
2023-02-23T14:03:47.127Z,13.70
2023-02-23T14:14:32.802Z,13.50
2023-02-23T14:25:33.513Z,13.50
2023-02-23T14:36:21.240Z,13.50
2023-02-23T14:47:08.608Z,13.80
2023-02-23T14:57:44.628Z,13.50
2023-02-23T15:08:26.255Z,13.20
2023-02-23T15:19:32.036Z,13.30
2023-02-23T15:30:30.859Z,13.00
2023-02-23T15:41:15.227Z,12.70
2023-02-23T15:51:57.274Z,12.90
2023-02-23T16:02:35.682Z,12.70
2023-02-23T16:13:13.900Z,12.50
2023-02-23T16:23:52.576Z,12.60
2023-02-23T16:34:37.075Z,12.40
2023-02-23T16:45:17.382Z,12.20
2023-02-23T16:55:55.242Z,12.10
2023-02-23T17:06:30.702Z,11.90
2023-02-23T17:17:08.762Z,11.70
2023-02-23T17:27:44.790Z,11.60
2023-02-23T17:38:21.497Z,11.60
2023-02-23T17:48:56.915Z,11.50
2023-02-23T17:59:33.915Z,11.30
2023-02-23T18:10:11.340Z,11.30
2023-02-23T18:20:56.281Z,10.90
2023-02-23T18:31:33.331Z,10.90
2023-02-23T18:42:09.012Z,10.90
2023-02-23T18:52:50.767Z,10.90
2023-02-23T19:03:27.256Z,10.70
2023-02-23T19:14:05.892Z,10.60
2023-02-23T19:24:41.539Z,10.40
2023-02-23T19:35:17.582Z,10.00
2023-02-23T19:45:54.422Z,10.00
2023-02-23T19:56:30.269Z,10.00
2023-02-23T20:07:07.426Z,10.00
2023-02-23T20:17:43.057Z,9.90
2023-02-23T20:28:18.519Z,10.00
2023-02-23T20:38:54.361Z,10.00
2023-02-23T20:49:30.122Z,9.90
2023-02-23T21:00:09.421Z,9.80
2023-02-23T21:10:45.102Z,9.70
2023-02-23T21:21:20.918Z,9.60
2023-02-23T21:31:57.015Z,9.70
2023-02-23T21:42:32.433Z,9.70
2023-02-23T21:53:09.556Z,9.60
2023-02-23T22:03:45.417Z,9.50
2023-02-23T22:14:22.159Z,9.50
2023-02-23T22:24:57.788Z,9.40
